createdAt,value
2022-10-31T00:00:50.865Z,10.81
2022-10-31T00:03:19.532Z,10.11
2022-10-31T00:05:49.735Z,9.84
2022-10-31T00:08:18.611Z,9.97
2022-10-31T00:10:48.159Z,10.21
2022-10-31T00:13:16.988Z,10.36
2022-10-31T00:15:44.910Z,10.47
2022-10-31T00:18:13.085Z,10.31
2022-10-31T00:20:41.230Z,10.26
2022-10-31T00:23:10.967Z,10.29
2022-10-31T00:25:40.282Z,10.42
2022-10-31T00:28:13.117Z,10.28
2022-10-31T00:30:41.118Z,10.40
2022-10-31T00:33:08.986Z,10.48
2022-10-31T00:35:38.599Z,10.45
2022-10-31T00:38:06.521Z,10.40
2022-10-31T00:40:34.493Z,10.15
2022-10-31T00:43:02.932Z,10.18
2022-10-31T00:45:32.551Z,10.28
2022-10-31T00:48:00.561Z,10.32
2022-10-31T00:50:28.726Z,10.34
2022-10-31T00:52:56.526Z,10.27
2022-10-31T00:55:24.405Z,10.28
2022-10-31T00:57:52.820Z,9.96
2022-10-31T01:00:21.155Z,9.87
2022-10-31T01:02:50.950Z,9.87
2022-10-31T01:05:18.902Z,10.31
2022-10-31T01:07:47.495Z,9.90
2022-10-31T01:10:15.723Z,10.06
2022-10-31T01:12:46.893Z,10.05
2022-10-31T01:15:17.510Z,9.69
2022-10-31T01:17:45.392Z,9.77
2022-10-31T01:20:15.980Z,9.54
2022-10-31T01:22:43.681Z,9.21
2022-10-31T01:25:12.476Z,9.58
2022-10-31T01:27:40.410Z,9.87
2022-10-31T01:30:10.572Z,9.73
2022-10-31T01:32:38.503Z,9.37
2022-10-31T01:35:06.653Z,9.64
2022-10-31T01:37:36.098Z,9.57
2022-10-31T01:40:04.446Z,9.56
2022-10-31T01:42:32.276Z,9.41
2022-10-31T01:45:02.652Z,9.28
2022-10-31T01:47:39.765Z,9.07
2022-10-31T01:50:15.665Z,9.28
2022-10-31T01:52:48.655Z,9.02
2022-10-31T01:55:25.150Z,8.66
2022-10-31T01:57:59.216Z,8.68
2022-10-31T02:00:27.569Z,8.65
2022-10-31T02:02:57.008Z,8.97
2022-10-31T02:05:27.589Z,8.99
2022-10-31T02:08:01.767Z,8.76
2022-10-31T02:10:32.691Z,9.09
2022-10-31T02:13:03.888Z,9.11
2022-10-31T02:15:33.888Z,8.75
2022-10-31T02:18:02.523Z,9.11
2022-10-31T02:20:35.029Z,9.57
2022-10-31T02:23:32.499Z,9.33
2022-10-31T02:26:22.613Z,9.54
2022-10-31T02:29:22.121Z,9.63
2022-10-31T02:32:01.323Z,9.81
2022-10-31T02:34:38.280Z,9.71
2022-10-31T02:37:11.772Z,9.70
2022-10-31T02:39:46.803Z,9.74
2022-10-31T02:42:30.339Z,9.82
2022-10-31T02:45:03.949Z,9.70
2022-10-31T02:47:38.644Z,9.85
2022-10-31T02:50:11.054Z,9.92
2022-10-31T02:52:40.635Z,9.61
2022-10-31T02:55:13.557Z,9.49
2022-10-31T02:57:43.804Z,9.68
2022-10-31T03:00:12.687Z,9.81
2022-10-31T03:03:04.766Z,9.97
2022-10-31T03:05:45.465Z,10.01
2022-10-31T03:08:23.570Z,10.03
2022-10-31T03:10:57.057Z,10.00
2022-10-31T03:13:36.809Z,9.44
2022-10-31T03:16:12.530Z,9.12
2022-10-31T03:18:44.807Z,9.30
2022-10-31T03:21:16.763Z,9.47
2022-10-31T03:23:47.019Z,9.26
2022-10-31T03:26:23.035Z,9.41
2022-10-31T03:28:55.123Z,9.65
2022-10-31T03:31:28.747Z,9.51
2022-10-31T03:34:00.570Z,9.78
2022-10-31T03:36:32.442Z,9.78
2022-10-31T03:39:02.206Z,9.54
2022-10-31T03:41:33.408Z,9.83
2022-10-31T03:44:05.904Z,9.88
2022-10-31T03:46:35.506Z,9.75
2022-10-31T03:49:06.246Z,9.59
2022-10-31T03:51:42.443Z,9.58
2022-10-31T03:54:17.842Z,9.64
2022-10-31T03:56:52.720Z,9.40
2022-10-31T03:59:28.275Z,9.61
2022-10-31T04:02:02.309Z,9.34
2022-10-31T04:04:32.575Z,9.56
2022-10-31T04:07:03.608Z,9.72
2022-10-31T04:09:34.141Z,9.69
2022-10-31T04:12:06.409Z,9.53
2022-10-31T04:14:55.002Z,9.72
2022-10-31T04:17:25.850Z,9.70
2022-10-31T04:19:55.152Z,9.74
2022-10-31T04:22:23.270Z,9.71
2022-10-31T04:24:51.150Z,9.55
2022-10-31T04:27:19.821Z,9.41
2022-10-31T04:29:50.735Z,9.56
2022-10-31T04:32:19.905Z,9.70
2022-10-31T04:34:47.868Z,9.71
2022-10-31T04:37:17.183Z,9.73
2022-10-31T04:39:45.160Z,9.82
2022-10-31T04:42:31.973Z,9.74
2022-10-31T04:45:02.347Z,9.65
2022-10-31T04:47:33.976Z,9.61
2022-10-31T04:50:02.827Z,9.58
2022-10-31T04:52:32.069Z,9.64
2022-10-31T04:55:00.006Z,9.20
2022-10-31T04:57:51.054Z,9.31
2022-10-31T05:00:22.486Z,9.33
2022-10-31T05:02:54.362Z,9.47
2022-10-31T05:05:23.108Z,9.82
2022-10-31T05:07:52.944Z,9.59
2022-10-31T05:10:25.708Z,9.43
2022-10-31T05:12:54.886Z,9.28
2022-10-31T05:15:41.458Z,9.42
2022-10-31T05:18:27.984Z,8.99
2022-10-31T05:21:17.589Z,8.72
2022-10-31T05:23:56.339Z,8.52
2022-10-31T05:26:25.830Z,8.57
2022-10-31T05:28:55.429Z,8.62
2022-10-31T05:31:24.893Z,8.70
2022-10-31T05:33:54.588Z,8.46
2022-10-31T05:36:41.065Z,8.62
2022-10-31T05:39:20.672Z,9.02
2022-10-31T05:41:51.482Z,9.25
2022-10-31T05:44:28.084Z,9.41
2022-10-31T05:47:07.790Z,9.05
2022-10-31T05:49:54.353Z,9.04
2022-10-31T05:52:41.031Z,8.91
2022-10-31T05:55:20.766Z,8.91
2022-10-31T05:58:04.399Z,8.96
2022-10-31T06:00:35.302Z,9.01
2022-10-31T06:05:50.630Z,8.99
2022-10-31T06:08:22.324Z,9.20
2022-10-31T06:10:54.071Z,9.43
2022-10-31T06:13:30.974Z,9.55
2022-10-31T06:16:11.396Z,9.60
2022-10-31T06:18:40.906Z,9.58
2022-10-31T06:21:11.496Z,9.64
2022-10-31T06:23:41.471Z,9.56
2022-10-31T06:26:45.963Z,9.77
2022-10-31T06:29:14.540Z,9.85
2022-10-31T06:32:05.102Z,9.95
2022-10-31T06:34:38.469Z,9.74
2022-10-31T06:37:07.455Z,9.79
2022-10-31T06:39:35.860Z,9.64
2022-10-31T06:42:05.149Z,9.50
2022-10-31T06:44:33.846Z,9.30
2022-10-31T06:47:01.530Z,9.13
2022-10-31T06:49:46.529Z,8.97
2022-10-31T06:52:17.367Z,9.28
2022-10-31T06:54:45.212Z,9.56
2022-10-31T06:57:17.221Z,9.72
2022-10-31T06:59:45.260Z,9.50
2022-10-31T07:02:31.378Z,9.49
2022-10-31T07:04:59.215Z,9.46
2022-10-31T07:07:26.943Z,9.57
2022-10-31T07:09:55.064Z,9.27
2022-10-31T07:12:38.787Z,9.49
2022-10-31T07:15:07.025Z,9.33
2022-10-31T07:17:34.726Z,9.41
2022-10-31T07:20:02.679Z,9.34
2022-10-31T07:22:34.349Z,9.31
2022-10-31T07:25:02.084Z,9.34
2022-10-31T07:27:53.942Z,9.38
2022-10-31T07:30:21.826Z,9.35
2022-10-31T07:32:52.497Z,9.43
2022-10-31T07:35:21.625Z,9.54
2022-10-31T07:37:56.575Z,9.88
2022-10-31T07:40:25.251Z,9.96
2022-10-31T07:42:55.124Z,10.19
2022-10-31T07:45:53.061Z,10.10
2022-10-31T07:48:39.406Z,10.28
2022-10-31T07:51:25.527Z,10.00
2022-10-31T07:54:13.272Z,9.96
2022-10-31T07:56:41.024Z,9.89
2022-10-31T07:59:10.396Z,9.86
2022-10-31T08:01:38.111Z,9.84
2022-10-31T08:04:25.740Z,9.79
2022-10-31T08:07:25.843Z,10.00
2022-10-31T08:09:59.866Z,9.95
2022-10-31T08:12:31.426Z,10.43
2022-10-31T08:15:00.966Z,10.33
2022-10-31T08:17:30.612Z,10.29
2022-10-31T08:20:00.894Z,10.52
2022-10-31T08:22:42.845Z,10.75
2022-10-31T08:25:12.228Z,11.05
2022-10-31T08:27:40.510Z,10.53
2022-10-31T08:30:15.269Z,10.54
2022-10-31T08:32:59.142Z,10.73
2022-10-31T08:35:45.381Z,10.99
2022-10-31T08:38:35.862Z,10.89
2022-10-31T08:41:03.725Z,10.63
2022-10-31T08:43:31.437Z,10.66
2022-10-31T08:46:00.579Z,10.84
2022-10-31T08:48:30.343Z,10.89
2022-10-31T08:50:59.011Z,11.02
2022-10-31T08:53:27.747Z,11.25
2022-10-31T08:56:12.088Z,11.37
2022-10-31T08:58:40.527Z,11.18
2022-10-31T09:01:11.819Z,11.34
2022-10-31T09:03:39.630Z,11.25
2022-10-31T09:06:09.828Z,11.31
2022-10-31T09:08:38.807Z,11.62
2022-10-31T09:11:08.261Z,11.41
2022-10-31T09:13:54.763Z,11.79
2022-10-31T09:16:42.016Z,11.62
2022-10-31T09:19:16.584Z,11.57
2022-10-31T09:21:47.458Z,11.91
2022-10-31T09:24:15.353Z,11.79
2022-10-31T09:26:44.292Z,11.58
2022-10-31T09:29:18.561Z,11.82
2022-10-31T09:31:51.501Z,11.75
2022-10-31T09:34:30.300Z,12.03
2022-10-31T09:37:09.771Z,11.54
2022-10-31T09:39:37.545Z,11.59
2022-10-31T09:42:34.219Z,11.54
2022-10-31T09:45:08.550Z,11.82
2022-10-31T09:47:46.578Z,11.89
2022-10-31T09:50:53.301Z,12.18
2022-10-31T09:53:51.704Z,12.11
2022-10-31T09:56:24.097Z,11.92
2022-10-31T09:58:56.440Z,12.13
2022-10-31T10:01:31.194Z,12.15
2022-10-31T10:04:04.064Z,12.29
2022-10-31T10:06:57.523Z,12.43
2022-10-31T10:09:48.547Z,12.57
2022-10-31T10:12:30.922Z,12.59
2022-10-31T10:15:05.009Z,12.35
2022-10-31T10:17:38.525Z,12.37
2022-10-31T10:20:31.556Z,12.64
2022-10-31T10:23:04.376Z,12.64
2022-10-31T10:25:35.020Z,12.71
2022-10-31T10:28:10.694Z,12.79
2022-10-31T10:30:42.218Z,12.87
2022-10-31T10:33:12.763Z,13.06
2022-10-31T10:35:44.695Z,13.01
2022-10-31T10:38:17.478Z,13.13
2022-10-31T10:40:45.425Z,13.20
2022-10-31T10:43:21.341Z,13.05
2022-10-31T10:46:11.789Z,13.25
2022-10-31T10:48:43.950Z,13.27
2022-10-31T10:51:31.957Z,13.27
2022-10-31T10:54:15.884Z,13.16
2022-10-31T10:56:51.312Z,13.12
2022-10-31T10:59:21.603Z,13.18
2022-10-31T11:01:50.751Z,13.47
2022-10-31T11:04:29.978Z,13.47
2022-10-31T11:07:03.169Z,13.52
2022-10-31T11:09:31.007Z,13.42
2022-10-31T11:11:59.718Z,13.90
2022-10-31T11:14:28.580Z,13.63
2022-10-31T11:17:10.485Z,13.74
2022-10-31T11:19:38.504Z,13.66
2022-10-31T11:22:16.773Z,13.79
2022-10-31T11:24:44.472Z,14.11
2022-10-31T11:27:15.714Z,13.85
2022-10-31T11:29:43.515Z,14.13
2022-10-31T11:32:19.076Z,14.16
2022-10-31T11:34:47.932Z,14.06
2022-10-31T11:37:34.683Z,14.05
2022-10-31T11:40:12.665Z,13.90
2022-10-31T11:42:41.764Z,14.28
2022-10-31T11:45:16.157Z,13.90
2022-10-31T11:47:46.207Z,14.39
2022-10-31T11:50:20.411Z,14.47
2022-10-31T11:52:49.715Z,14.08
2022-10-31T11:55:19.793Z,14.26
2022-10-31T11:57:48.484Z,14.38
2022-10-31T12:00:23.283Z,14.23
2022-10-31T12:02:51.069Z,14.27
2022-10-31T12:05:21.045Z,14.35
2022-10-31T12:07:50.964Z,14.14
2022-10-31T12:10:21.385Z,13.91
2022-10-31T12:12:58.998Z,14.34
2022-10-31T12:15:31.498Z,14.48
2022-10-31T12:18:04.567Z,14.26
2022-10-31T12:20:40.823Z,14.14
2022-10-31T12:23:17.230Z,14.05
2022-10-31T12:25:48.269Z,14.05
2022-10-31T12:28:23.655Z,14.23
2022-10-31T12:30:57.117Z,14.37
2022-10-31T12:33:30.153Z,14.58
2022-10-31T12:36:10.964Z,14.26
2022-10-31T12:38:50.964Z,14.33
2022-10-31T12:41:24.424Z,14.09
2022-10-31T12:43:55.486Z,14.37
2022-10-31T12:46:27.761Z,14.16
2022-10-31T12:49:13.649Z,14.06
2022-10-31T12:51:45.723Z,14.39
2022-10-31T12:54:22.770Z,14.16
2022-10-31T12:56:56.609Z,14.20
2022-10-31T12:59:29.598Z,14.24
2022-10-31T13:02:04.476Z,14.13
2022-10-31T13:04:37.396Z,14.29
2022-10-31T13:07:08.707Z,14.68
2022-10-31T13:09:39.309Z,14.55
2022-10-31T13:12:10.657Z,14.49
2022-10-31T13:14:40.071Z,14.33
2022-10-31T13:17:08.627Z,14.67
2022-10-31T13:19:38.794Z,14.79
2022-10-31T13:22:08.635Z,14.69
2022-10-31T13:24:38.286Z,14.63
2022-10-31T13:27:15.053Z,14.67
2022-10-31T13:29:46.175Z,14.63
2022-10-31T13:32:13.917Z,14.74
2022-10-31T13:34:44.255Z,14.44
2022-10-31T13:37:17.242Z,14.64
2022-10-31T13:39:51.212Z,14.78
2022-10-31T13:42:24.266Z,14.52
2022-10-31T13:44:58.815Z,14.85
2022-10-31T13:47:46.763Z,14.70
2022-10-31T13:50:28.854Z,14.98
2022-10-31T13:53:20.712Z,15.01
2022-10-31T13:56:11.848Z,15.16
2022-10-31T13:59:08.751Z,14.80
2022-10-31T14:01:55.013Z,14.51
2022-10-31T14:04:45.837Z,14.75
2022-10-31T14:07:35.701Z,14.59
2022-10-31T14:10:37.471Z,14.32
2022-10-31T14:13:48.712Z,14.25
2022-10-31T14:16:56.245Z,14.46
2022-10-31T14:20:24.745Z,14.43
2022-10-31T14:23:54.189Z,14.65
2022-10-31T14:26:40.867Z,14.21
2022-10-31T14:29:33.702Z,14.21
2022-10-31T14:32:30.847Z,14.09
2022-10-31T14:35:51.221Z,14.69
2022-10-31T14:38:53.733Z,14.44
2022-10-31T14:41:41.719Z,14.64
2022-10-31T14:44:39.718Z,14.44
2022-10-31T14:47:33.764Z,14.21
2022-10-31T14:50:32.790Z,14.49
2022-10-31T14:53:23.722Z,14.42
2022-10-31T14:56:02.826Z,14.29
2022-10-31T14:58:37.356Z,14.21
2022-10-31T15:01:05.856Z,14.65
2022-10-31T15:03:36.119Z,14.22
2022-10-31T15:06:05.341Z,14.06
2022-10-31T15:08:35.107Z,13.85
2022-10-31T15:11:12.323Z,13.98
2022-10-31T15:13:43.602Z,14.03
2022-10-31T15:16:12.795Z,14.46
2022-10-31T15:18:48.523Z,14.51
2022-10-31T15:21:17.023Z,14.42
2022-10-31T15:23:45.101Z,14.40
2022-10-31T15:26:17.835Z,14.25
2022-10-31T15:28:45.591Z,14.21
2022-10-31T15:31:17.482Z,13.97
2022-10-31T15:33:48.675Z,14.06
2022-10-31T15:36:23.959Z,13.99
2022-10-31T15:38:57.572Z,13.85
2022-10-31T15:41:28.897Z,14.01
2022-10-31T15:43:57.297Z,14.08
2022-10-31T15:46:25.075Z,13.83
2022-10-31T15:48:54.148Z,13.92
2022-10-31T15:51:27.563Z,14.28
2022-10-31T15:53:56.279Z,13.76
2022-10-31T15:56:25.230Z,14.02
2022-10-31T15:58:54.428Z,13.96
2022-10-31T16:01:23.576Z,13.92
2022-10-31T16:04:12.426Z,14.24
2022-10-31T16:06:41.525Z,13.87
2022-10-31T16:09:23.145Z,13.63
2022-10-31T16:11:50.909Z,14.01
2022-10-31T16:14:25.295Z,13.58
2022-10-31T16:16:54.807Z,13.84
2022-10-31T16:19:23.940Z,13.53
2022-10-31T16:21:56.079Z,13.35
2022-10-31T16:24:26.895Z,13.21
2022-10-31T16:26:55.799Z,13.23
2022-10-31T16:29:27.806Z,13.46
2022-10-31T16:31:55.450Z,13.89
2022-10-31T16:34:26.950Z,14.07
2022-10-31T16:36:56.225Z,13.88
2022-10-31T16:39:23.836Z,13.93
2022-10-31T16:41:52.881Z,13.77
2022-10-31T16:44:23.238Z,14.12
2022-10-31T16:47:08.941Z,13.77
2022-10-31T16:49:36.563Z,13.83
2022-10-31T16:52:05.754Z,13.52
2022-10-31T16:54:33.404Z,14.05
2022-10-31T16:57:01.780Z,14.09
2022-10-31T16:59:29.464Z,14.26
2022-10-31T17:01:57.645Z,14.19
2022-10-31T17:04:25.676Z,13.70
2022-10-31T17:06:53.366Z,14.07
2022-10-31T17:09:22.459Z,14.03
2022-10-31T17:11:52.057Z,13.45
2022-10-31T17:14:20.536Z,13.63
2022-10-31T17:16:48.472Z,13.71
2022-10-31T17:19:16.151Z,13.40
2022-10-31T17:21:43.912Z,13.60
2022-10-31T17:24:13.312Z,13.88
2022-10-31T17:26:42.632Z,13.58
2022-10-31T17:29:10.290Z,13.15
2022-10-31T17:31:39.340Z,13.22
2022-10-31T17:34:07.379Z,12.97
2022-10-31T17:36:35.724Z,13.18
2022-10-31T17:39:05.571Z,13.17
2022-10-31T17:41:33.261Z,13.59
2022-10-31T17:44:02.269Z,13.74
2022-10-31T17:48:49.949Z,13.24
2022-10-31T17:51:17.918Z,13.42
2022-10-31T17:53:45.541Z,13.26
2022-10-31T17:56:13.207Z,13.32
2022-10-31T17:58:41.379Z,13.01
2022-10-31T18:01:10.432Z,12.58
2022-10-31T18:03:38.702Z,12.46
2022-10-31T18:06:08.299Z,12.63
2022-10-31T18:08:36.629Z,12.53
2022-10-31T18:11:09.162Z,12.85
2022-10-31T18:13:37.103Z,12.49
2022-10-31T18:16:08.210Z,12.36
2022-10-31T18:18:35.857Z,12.31
2022-10-31T18:21:03.456Z,12.35
2022-10-31T18:23:32.438Z,12.35
2022-10-31T18:26:00.083Z,12.46
2022-10-31T18:28:27.781Z,12.19
2022-10-31T18:30:56.043Z,12.02
2022-10-31T18:33:23.692Z,12.02
2022-10-31T18:35:51.302Z,12.24
2022-10-31T18:38:19.155Z,12.34
2022-10-31T18:40:48.147Z,12.65
2022-10-31T18:43:15.804Z,12.74
2022-10-31T18:45:48.055Z,12.63
2022-10-31T18:48:17.432Z,12.88
2022-10-31T18:50:45.489Z,12.80
2022-10-31T18:53:13.135Z,12.42
2022-10-31T18:55:44.140Z,12.92
2022-10-31T18:58:18.190Z,12.60
2022-10-31T19:00:46.464Z,13.02
2022-10-31T19:03:14.284Z,12.96
2022-10-31T19:05:42.071Z,12.05
2022-10-31T19:08:09.720Z,12.14
2022-10-31T19:10:37.630Z,11.93
2022-10-31T19:13:05.798Z,11.80
2022-10-31T19:15:36.504Z,12.15
2022-10-31T19:18:04.487Z,12.65
2022-10-31T19:20:32.385Z,12.62
2022-10-31T19:23:00.334Z,12.46
2022-10-31T19:25:28.278Z,12.06
2022-10-31T19:27:55.873Z,12.61
2022-10-31T19:30:23.517Z,12.64
2022-10-31T19:32:56.147Z,12.85
2022-10-31T19:35:24.047Z,12.83
2022-10-31T19:37:51.634Z,12.87
2022-10-31T19:40:19.669Z,12.79
2022-10-31T19:42:47.350Z,12.75
2022-10-31T19:45:15.004Z,12.79
2022-10-31T19:47:42.636Z,12.42
2022-10-31T19:50:11.938Z,12.45
2022-10-31T19:52:39.754Z,12.63
2022-10-31T19:55:07.733Z,12.64
2022-10-31T19:58:00.277Z,11.91
2022-10-31T20:00:24.504Z,11.92
2022-10-31T20:02:52.164Z,11.78
2022-10-31T20:05:21.223Z,12.32
2022-10-31T20:07:48.846Z,11.48
2022-10-31T20:10:16.713Z,11.27
2022-10-31T20:12:44.486Z,11.12
2022-10-31T20:15:12.114Z,11.23
2022-10-31T20:17:39.764Z,11.04
2022-10-31T20:20:09.001Z,11.17
2022-10-31T20:22:38.488Z,11.18
2022-10-31T20:25:06.565Z,11.44
2022-10-31T20:27:34.215Z,10.84
2022-10-31T20:30:01.895Z,10.63
2022-10-31T20:32:29.589Z,10.68
2022-10-31T20:34:57.595Z,10.66
2022-10-31T20:37:25.531Z,10.42
2022-10-31T20:39:56.571Z,10.53
2022-10-31T20:42:24.568Z,10.60
2022-10-31T20:44:52.187Z,10.44
2022-10-31T20:47:23.337Z,10.91
2022-10-31T20:49:52.757Z,11.19
2022-10-31T20:52:20.341Z,11.16
2022-10-31T20:54:47.996Z,10.55
2022-10-31T20:57:16.967Z,10.43
2022-10-31T20:59:44.645Z,10.46
2022-10-31T21:02:12.432Z,10.56
2022-10-31T21:04:40.511Z,10.75
2022-10-31T21:07:08.223Z,10.76
2022-10-31T21:09:35.865Z,10.62
2022-10-31T21:12:03.534Z,10.44
2022-10-31T21:14:32.711Z,10.45
2022-10-31T21:17:00.689Z,10.49
2022-10-31T21:19:28.284Z,10.96
2022-10-31T21:21:56.008Z,10.71
2022-10-31T21:24:23.593Z,11.02
2022-10-31T21:26:52.627Z,10.83
2022-10-31T21:29:20.743Z,10.69
2022-10-31T21:31:49.786Z,10.92
2022-10-31T21:34:17.694Z,10.71
2022-10-31T21:36:45.310Z,11.13
2022-10-31T21:39:12.967Z,10.97
2022-10-31T21:41:40.609Z,11.21
2022-10-31T21:44:08.309Z,10.90
2022-10-31T21:46:38.134Z,11.29
2022-10-31T21:49:07.242Z,11.48
2022-10-31T21:51:36.144Z,11.35
2022-10-31T21:54:21.169Z,11.53
2022-10-31T21:56:48.867Z,11.52
2022-10-31T21:59:16.534Z,10.91
2022-10-31T22:01:44.337Z,10.96
2022-10-31T22:04:13.386Z,11.37
2022-10-31T22:06:41.039Z,10.58
2022-10-31T22:09:09.682Z,10.69
2022-10-31T22:11:37.491Z,11.16
2022-10-31T22:14:05.481Z,11.10
2022-10-31T22:16:34.815Z,11.07
2022-10-31T22:19:05.403Z,11.01
2022-10-31T22:21:36.987Z,11.26
2022-10-31T22:24:07.580Z,10.76
2022-10-31T22:26:35.778Z,11.19
2022-10-31T22:29:05.128Z,11.21
2022-10-31T22:31:33.383Z,11.19
2022-10-31T22:34:01.459Z,10.93
2022-10-31T22:36:29.955Z,10.85
2022-10-31T22:38:59.020Z,10.35
2022-10-31T22:41:27.747Z,11.00
2022-10-31T22:43:55.393Z,10.86
2022-10-31T22:46:24.407Z,10.41
2022-10-31T22:48:52.942Z,11.02
2022-10-31T22:51:21.400Z,10.73
2022-10-31T22:53:49.047Z,10.37
2022-10-31T22:56:19.261Z,10.88
2022-10-31T22:58:46.953Z,10.50
2022-10-31T23:01:16.146Z,10.93
2022-10-31T23:03:44.163Z,11.00
2022-10-31T23:06:12.939Z,10.75
2022-10-31T23:08:40.873Z,10.69
2022-10-31T23:11:15.687Z,10.46
2022-10-31T23:14:02.817Z,10.57
2022-10-31T23:16:30.392Z,10.36
2022-10-31T23:18:58.168Z,10.73
2022-10-31T23:21:44.061Z,11.04
2022-10-31T23:24:12.566Z,11.11
2022-10-31T23:26:58.350Z,10.88
2022-10-31T23:29:27.535Z,11.04
2022-10-31T23:31:55.556Z,10.71
2022-10-31T23:34:23.578Z,10.96
2022-10-31T23:36:51.431Z,11.00
2022-10-31T23:39:22.701Z,10.97
2022-10-31T23:41:53.322Z,10.85
2022-10-31T23:44:21.315Z,10.89
2022-10-31T23:46:50.392Z,11.00
2022-10-31T23:49:18.396Z,10.95
2022-10-31T23:51:46.076Z,10.92
2022-10-31T23:54:13.794Z,10.96
2022-10-31T23:56:41.471Z,11.00
2022-10-31T23:59:09.119Z,10.76
